sensor_id;sensor_type;location;lat;lon;timestamp;temperature;humidity
37408;DHT22;24866;50.248;8.252;2023-08-06T00:02:01;15.20;99.90
37408;DHT22;24866;50.248;8.252;2023-08-06T00:04:32;15.20;99.90
37408;DHT22;24866;50.248;8.252;2023-08-06T00:07:03;15.20;99.90
37408;DHT22;24866;50.248;8.252;2023-08-06T00:09:33;15.10;99.90
37408;DHT22;24866;50.248;8.252;2023-08-06T00:12:04;15.10;99.90
37408;DHT22;24866;50.248;8.252;2023-08-06T00:14:34;15.00;99.90
37408;DHT22;24866;50.248;8.252;2023-08-06T00:17:03;15.10;99.90
37408;DHT22;24866;50.248;8.252;2023-08-06T00:19:35;15.10;99.90
37408;DHT22;24866;50.248;8.252;2023-08-06T00:22:05;15.10;99.90
37408;DHT22;24866;50.248;8.252;2023-08-06T00:24:34;15.20;99.90
37408;DHT22;24866;50.248;8.252;2023-08-06T00:27:05;15.20;99.90
37408;DHT22;24866;50.248;8.252;2023-08-06T00:29:35;15.20;99.90
37408;DHT22;24866;50.248;8.252;2023-08-06T00:32:05;15.20;99.90
37408;DHT22;24866;50.248;8.252;2023-08-06T00:34:36;15.30;99.90
37408;DHT22;24866;50.248;8.252;2023-08-06T00:37:06;15.30;99.90
37408;DHT22;24866;50.248;8.252;2023-08-06T00:39:36;15.30;99.90
37408;DHT22;24866;50.248;8.252;2023-08-06T00:42:05;15.30;99.90
37408;DHT22;24866;50.248;8.252;2023-08-06T00:44:35;15.30;99.90
37408;DHT22;24866;50.248;8.252;2023-08-06T00:47:06;15.30;99.90
37408;DHT22;24866;50.248;8.252;2023-08-06T00:49:39;15.30;99.90
37408;DHT22;24866;50.248;8.252;2023-08-06T00:52:09;15.40;99.90
37408;DHT22;24866;50.248;8.252;2023-08-06T00:54:39;15.40;99.90
37408;DHT22;24866;50.248;8.252;2023-08-06T00:57:09;15.40;99.90
37408;DHT22;24866;50.248;8.252;2023-08-06T00:59:39;15.50;99.90
37408;DHT22;24866;50.248;8.252;2023-08-06T01:02:09;15.40;99.90
37408;DHT22;24866;50.248;8.252;2023-08-06T01:04:40;15.40;99.90
37408;DHT22;24866;50.248;8.252;2023-08-06T01:07:21;15.40;99.90
37408;DHT22;24866;50.248;8.252;2023-08-06T01:10:00;15.40;99.90
37408;DHT22;24866;50.248;8.252;2023-08-06T01:12:42;15.40;99.90
37408;DHT22;24866;50.248;8.252;2023-08-06T01:15:19;15.40;99.90
37408;DHT22;24866;50.248;8.252;2023-08-06T01:17:50;15.40;99.90
37408;DHT22;24866;50.248;8.252;2023-08-06T01:20:21;15.40;99.90
37408;DHT22;24866;50.248;8.252;2023-08-06T01:22:52;15.30;99.90
37408;DHT22;24866;50.248;8.252;2023-08-06T01:25:28;15.30;99.90
37408;DHT22;24866;50.248;8.252;2023-08-06T01:28:11;15.40;99.90
37408;DHT22;24866;50.248;8.252;2023-08-06T01:30:46;15.30;99.90
37408;DHT22;24866;50.248;8.252;2023-08-06T01:33:19;15.20;99.90
37408;DHT22;24866;50.248;8.252;2023-08-06T01:35:51;15.20;99.90
37408;DHT22;24866;50.248;8.252;2023-08-06T01:38:25;15.20;99.90
37408;DHT22;24866;50.248;8.252;2023-08-06T01:40:56;15.30;99.90
37408;DHT22;24866;50.248;8.252;2023-08-06T01:43:26;15.30;99.90
37408;DHT22;24866;50.248;8.252;2023-08-06T01:45:56;15.30;99.90
37408;DHT22;24866;50.248;8.252;2023-08-06T01:48:25;15.30;99.90
37408;DHT22;24866;50.248;8.252;2023-08-06T01:50:55;15.30;99.90
37408;DHT22;24866;50.248;8.252;2023-08-06T01:53:26;15.40;99.90
37408;DHT22;24866;50.248;8.252;2023-08-06T01:55:56;15.30;99.90
37408;DHT22;24866;50.248;8.252;2023-08-06T01:58:26;15.30;99.90
37408;DHT22;24866;50.248;8.252;2023-08-06T02:00:56;15.20;99.90
37408;DHT22;24866;50.248;8.252;2023-08-06T02:03:26;15.20;99.90
37408;DHT22;24866;50.248;8.252;2023-08-06T02:05:55;15.20;99.90
37408;DHT22;24866;50.248;8.252;2023-08-06T02:08:27;15.20;99.90
37408;DHT22;24866;50.248;8.252;2023-08-06T02:10:57;15.20;99.90
37408;DHT22;24866;50.248;8.252;2023-08-06T02:13:27;15.20;99.90
37408;DHT22;24866;50.248;8.252;2023-08-06T02:15:57;15.20;99.90
37408;DHT22;24866;50.248;8.252;2023-08-06T02:18:27;15.10;99.90
37408;DHT22;24866;50.248;8.252;2023-08-06T02:20:58;15.10;99.90
37408;DHT22;24866;50.248;8.252;2023-08-06T02:23:29;15.10;99.90
37408;DHT22;24866;50.248;8.252;2023-08-06T02:26:00;15.10;99.90
37408;DHT22;24866;50.248;8.252;2023-08-06T02:28:30;15.10;99.90
37408;DHT22;24866;50.248;8.252;2023-08-06T02:31:00;15.00;99.90
37408;DHT22;24866;50.248;8.252;2023-08-06T02:33:30;15.00;99.90
37408;DHT22;24866;50.248;8.252;2023-08-06T02:36:00;14.90;99.90
37408;DHT22;24866;50.248;8.252;2023-08-06T02:38:33;15.00;99.90
37408;DHT22;24866;50.248;8.252;2023-08-06T02:41:03;14.90;99.90
37408;DHT22;24866;50.248;8.252;2023-08-06T02:43:33;14.90;99.90
37408;DHT22;24866;50.248;8.252;2023-08-06T02:46:03;14.90;99.90
37408;DHT22;24866;50.248;8.252;2023-08-06T02:48:32;15.00;99.90
37408;DHT22;24866;50.248;8.252;2023-08-06T02:51:02;14.80;99.90
37408;DHT22;24866;50.248;8.252;2023-08-06T02:53:34;14.80;99.90
37408;DHT22;24866;50.248;8.252;2023-08-06T02:56:04;14.80;99.90
37408;DHT22;24866;50.248;8.252;2023-08-06T02:58:33;14.80;99.90
37408;DHT22;24866;50.248;8.252;2023-08-06T03:01:04;14.80;99.90
37408;DHT22;24866;50.248;8.252;2023-08-06T03:03:35;14.90;99.90
37408;DHT22;24866;50.248;8.252;2023-08-06T03:06:05;14.90;99.90
37408;DHT22;24866;50.248;8.252;2023-08-06T03:08:36;14.80;99.90
37408;DHT22;24866;50.248;8.252;2023-08-06T03:11:06;14.80;99.90
37408;DHT22;24866;50.248;8.252;2023-08-06T03:13:36;14.80;99.90
37408;DHT22;24866;50.248;8.252;2023-08-06T03:16:05;14.80;99.90
37408;DHT22;24866;50.248;8.252;2023-08-06T03:18:35;14.80;99.90
37408;DHT22;24866;50.248;8.252;2023-08-06T03:21:05;14.80;99.90
37408;DHT22;24866;50.248;8.252;2023-08-06T03:23:36;14.80;99.90
37408;DHT22;24866;50.248;8.252;2023-08-06T03:26:06;14.80;99.90
37408;DHT22;24866;50.248;8.252;2023-08-06T03:28:36;14.80;99.90
37408;DHT22;24866;50.248;8.252;2023-08-06T03:31:05;14.90;99.90
37408;DHT22;24866;50.248;8.252;2023-08-06T03:33:35;14.90;99.90
37408;DHT22;24866;50.248;8.252;2023-08-06T03:36:05;14.90;99.90
37408;DHT22;24866;50.248;8.252;2023-08-06T03:38:37;15.00;99.90
37408;DHT22;24866;50.248;8.252;2023-08-06T03:41:06;15.00;99.90
37408;DHT22;24866;50.248;8.252;2023-08-06T03:43:36;15.00;99.90
37408;DHT22;24866;50.248;8.252;2023-08-06T03:46:06;14.90;99.90
37408;DHT22;24866;50.248;8.252;2023-08-06T03:48:36;14.90;99.90
37408;DHT22;24866;50.248;8.252;2023-08-06T03:51:05;15.00;99.90
37408;DHT22;24866;50.248;8.252;2023-08-06T03:53:37;15.00;99.90
37408;DHT22;24866;50.248;8.252;2023-08-06T03:56:06;14.90;99.90
37408;DHT22;24866;50.248;8.252;2023-08-06T03:58:36;14.80;99.90
37408;DHT22;24866;50.248;8.252;2023-08-06T04:01:06;14.80;99.90
37408;DHT22;24866;50.248;8.252;2023-08-06T04:03:36;14.80;99.90
37408;DHT22;24866;50.248;8.252;2023-08-06T04:06:06;14.70;99.90
37408;DHT22;24866;50.248;8.252;2023-08-06T04:08:38;14.70;99.90
37408;DHT22;24866;50.248;8.252;2023-08-06T04:11:08;14.70;99.90
37408;DHT22;24866;50.248;8.252;2023-08-06T04:13:37;14.60;99.90
37408;DHT22;24866;50.248;8.252;2023-08-06T04:16:07;14.60;99.90
37408;DHT22;24866;50.248;8.252;2023-08-06T04:18:37;14.60;99.90
37408;DHT22;24866;50.248;8.252;2023-08-06T04:21:07;14.60;99.90
37408;DHT22;24866;50.248;8.252;2023-08-06T04:23:38;14.60;99.90
37408;DHT22;24866;50.248;8.252;2023-08-06T04:26:08;14.60;99.90
37408;DHT22;24866;50.248;8.252;2023-08-06T04:28:37;14.60;99.90
37408;DHT22;24866;50.248;8.252;2023-08-06T04:31:07;14.60;99.90
37408;DHT22;24866;50.248;8.252;2023-08-06T04:33:37;14.50;99.90
37408;DHT22;24866;50.248;8.252;2023-08-06T04:36:07;14.50;99.90
37408;DHT22;24866;50.248;8.252;2023-08-06T04:38:38;14.60;99.90
37408;DHT22;24866;50.248;8.252;2023-08-06T04:41:09;14.60;99.90
37408;DHT22;24866;50.248;8.252;2023-08-06T04:43:39;14.60;99.90
37408;DHT22;24866;50.248;8.252;2023-08-06T04:46:09;14.50;99.90
37408;DHT22;24866;50.248;8.252;2023-08-06T04:48:39;14.50;99.90
37408;DHT22;24866;50.248;8.252;2023-08-06T04:51:08;14.50;99.90
37408;DHT22;24866;50.248;8.252;2023-08-06T04:53:40;14.50;99.90
37408;DHT22;24866;50.248;8.252;2023-08-06T04:56:10;14.50;99.90
37408;DHT22;24866;50.248;8.252;2023-08-06T04:58:41;14.50;99.90
37408;DHT22;24866;50.248;8.252;2023-08-06T05:01:11;14.50;99.90
37408;DHT22;24866;50.248;8.252;2023-08-06T05:03:41;14.50;99.90
37408;DHT22;24866;50.248;8.252;2023-08-06T05:06:10;14.50;99.90
37408;DHT22;24866;50.248;8.252;2023-08-06T05:08:41;14.50;99.90
37408;DHT22;24866;50.248;8.252;2023-08-06T05:11:11;14.50;99.90
37408;DHT22;24866;50.248;8.252;2023-08-06T05:13:41;14.50;99.90
37408;DHT22;24866;50.248;8.252;2023-08-06T05:16:11;14.50;99.90
37408;DHT22;24866;50.248;8.252;2023-08-06T05:18:41;14.60;99.90
37408;DHT22;24866;50.248;8.252;2023-08-06T05:21:10;14.60;99.90
37408;DHT22;24866;50.248;8.252;2023-08-06T05:23:42;14.60;99.90
37408;DHT22;24866;50.248;8.252;2023-08-06T05:26:11;14.60;99.90
37408;DHT22;24866;50.248;8.252;2023-08-06T05:28:43;14.60;99.90
37408;DHT22;24866;50.248;8.252;2023-08-06T05:31:13;14.70;99.90
37408;DHT22;24866;50.248;8.252;2023-08-06T05:33:43;14.70;99.90
37408;DHT22;24866;50.248;8.252;2023-08-06T05:36:12;14.70;99.90
37408;DHT22;24866;50.248;8.252;2023-08-06T05:38:44;14.60;99.90
37408;DHT22;24866;50.248;8.252;2023-08-06T05:41:13;14.70;99.90
37408;DHT22;24866;50.248;8.252;2023-08-06T05:43:43;14.60;99.90
37408;DHT22;24866;50.248;8.252;2023-08-06T05:46:13;14.60;99.90
37408;DHT22;24866;50.248;8.252;2023-08-06T05:48:43;14.70;99.90
37408;DHT22;24866;50.248;8.252;2023-08-06T05:51:13;14.70;99.90
37408;DHT22;24866;50.248;8.252;2023-08-06T05:53:46;14.70;99.90
37408;DHT22;24866;50.248;8.252;2023-08-06T05:56:17;14.60;99.90
37408;DHT22;24866;50.248;8.252;2023-08-06T05:58:47;14.70;99.90
37408;DHT22;24866;50.248;8.252;2023-08-06T06:01:19;14.60;99.90
37408;DHT22;24866;50.248;8.252;2023-08-06T06:03:48;14.70;99.90
37408;DHT22;24866;50.248;8.252;2023-08-06T06:06:18;14.60;99.90
37408;DHT22;24866;50.248;8.252;2023-08-06T06:08:50;14.60;99.90
37408;DHT22;24866;50.248;8.252;2023-08-06T06:11:20;14.50;99.90
37408;DHT22;24866;50.248;8.252;2023-08-06T06:13:51;14.50;99.90
37408;DHT22;24866;50.248;8.252;2023-08-06T06:16:20;14.50;99.90
37408;DHT22;24866;50.248;8.252;2023-08-06T06:18:50;14.50;99.90
37408;DHT22;24866;50.248;8.252;2023-08-06T06:21:20;14.50;99.90
37408;DHT22;24866;50.248;8.252;2023-08-06T06:23:51;14.60;99.90
37408;DHT22;24866;50.248;8.252;2023-08-06T06:26:21;14.60;99.90
37408;DHT22;24866;50.248;8.252;2023-08-06T06:28:51;14.70;99.90
37408;DHT22;24866;50.248;8.252;2023-08-06T06:31:21;14.70;99.90
37408;DHT22;24866;50.248;8.252;2023-08-06T06:33:50;14.70;99.90
37408;DHT22;24866;50.248;8.252;2023-08-06T06:36:22;14.80;99.90
37408;DHT22;24866;50.248;8.252;2023-08-06T06:38:53;14.70;99.90
37408;DHT22;24866;50.248;8.252;2023-08-06T06:41:23;14.80;99.90
37408;DHT22;24866;50.248;8.252;2023-08-06T06:43:54;14.80;99.90
37408;DHT22;24866;50.248;8.252;2023-08-06T06:46:24;14.80;99.90
37408;DHT22;24866;50.248;8.252;2023-08-06T06:48:54;14.80;99.90
37408;DHT22;24866;50.248;8.252;2023-08-06T06:51:24;14.80;99.90
37408;DHT22;24866;50.248;8.252;2023-08-06T06:53:55;14.90;99.90
37408;DHT22;24866;50.248;8.252;2023-08-06T06:56:25;14.90;99.90
37408;DHT22;24866;50.248;8.252;2023-08-06T06:58:55;14.80;99.90
37408;DHT22;24866;50.248;8.252;2023-08-06T07:01:24;14.90;99.90
37408;DHT22;24866;50.248;8.252;2023-08-06T07:03:54;14.80;99.90
37408;DHT22;24866;50.248;8.252;2023-08-06T07:06:25;14.90;99.90
37408;DHT22;24866;50.248;8.252;2023-08-06T07:08:57;14.90;99.90
37408;DHT22;24866;50.248;8.252;2023-08-06T07:11:27;14.90;99.90
37408;DHT22;24866;50.248;8.252;2023-08-06T07:13:57;14.90;99.90
37408;DHT22;24866;50.248;8.252;2023-08-06T07:16:27;15.00;99.90
37408;DHT22;24866;50.248;8.252;2023-08-06T07:18:57;15.10;99.90
37408;DHT22;24866;50.248;8.252;2023-08-06T07:21:27;15.20;99.90
37408;DHT22;24866;50.248;8.252;2023-08-06T07:23:58;15.10;99.90
37408;DHT22;24866;50.248;8.252;2023-08-06T07:26:28;15.30;99.90
37408;DHT22;24866;50.248;8.252;2023-08-06T07:28:58;15.30;99.90
37408;DHT22;24866;50.248;8.252;2023-08-06T07:31:28;15.40;99.90
37408;DHT22;24866;50.248;8.252;2023-08-06T07:33:58;15.30;99.90
37408;DHT22;24866;50.248;8.252;2023-08-06T07:36:28;15.20;99.90
37408;DHT22;24866;50.248;8.252;2023-08-06T07:38:59;15.20;99.90
37408;DHT22;24866;50.248;8.252;2023-08-06T07:41:29;15.20;99.90
37408;DHT22;24866;50.248;8.252;2023-08-06T07:43:58;15.20;99.90
37408;DHT22;24866;50.248;8.252;2023-08-06T07:46:28;15.00;99.90
37408;DHT22;24866;50.248;8.252;2023-08-06T07:48:58;15.10;99.90
37408;DHT22;24866;50.248;8.252;2023-08-06T07:51:28;15.20;99.90
37408;DHT22;24866;50.248;8.252;2023-08-06T07:53:59;15.40;99.90
37408;DHT22;24866;50.248;8.252;2023-08-06T07:56:29;15.20;99.90
37408;DHT22;24866;50.248;8.252;2023-08-06T07:58:59;15.30;99.90
37408;DHT22;24866;50.248;8.252;2023-08-06T08:01:28;15.20;99.90
37408;DHT22;24866;50.248;8.252;2023-08-06T08:03:58;15.40;99.90
37408;DHT22;24866;50.248;8.252;2023-08-06T08:06:28;15.40;99.90
37408;DHT22;24866;50.248;8.252;2023-08-06T08:08:59;15.60;99.90
37408;DHT22;24866;50.248;8.252;2023-08-06T08:11:29;15.60;99.90
37408;DHT22;24866;50.248;8.252;2023-08-06T08:13:59;15.80;99.90
37408;DHT22;24866;50.248;8.252;2023-08-06T08:16:29;15.80;99.90
37408;DHT22;24866;50.248;8.252;2023-08-06T08:18:59;15.90;99.90
37408;DHT22;24866;50.248;8.252;2023-08-06T08:21:28;15.90;99.90
37408;DHT22;24866;50.248;8.252;2023-08-06T08:24:00;16.20;99.90
37408;DHT22;24866;50.248;8.252;2023-08-06T08:26:30;16.20;99.90
37408;DHT22;24866;50.248;8.252;2023-08-06T08:29:00;16.10;99.90
37408;DHT22;24866;50.248;8.252;2023-08-06T08:31:29;16.40;99.90
37408;DHT22;24866;50.248;8.252;2023-08-06T08:33:59;16.50;99.90
37408;DHT22;24866;50.248;8.252;2023-08-06T08:36:29;16.40;99.90
37408;DHT22;24866;50.248;8.252;2023-08-06T08:39:00;16.40;99.90
37408;DHT22;24866;50.248;8.252;2023-08-06T08:41:30;16.30;99.90
37408;DHT22;24866;50.248;8.252;2023-08-06T08:44:01;16.30;99.90
37408;DHT22;24866;50.248;8.252;2023-08-06T08:46:32;16.30;99.90
37408;DHT22;24866;50.248;8.252;2023-08-06T08:49:03;16.20;99.90
37408;DHT22;24866;50.248;8.252;2023-08-06T08:51:33;16.10;99.90
37408;DHT22;24866;50.248;8.252;2023-08-06T08:54:07;16.10;99.90
37408;DHT22;24866;50.248;8.252;2023-08-06T08:56:37;16.20;99.90
37408;DHT22;24866;50.248;8.252;2023-08-06T08:59:07;16.40;99.90
37408;DHT22;24866;50.248;8.252;2023-08-06T09:01:39;16.60;99.90
37408;DHT22;24866;50.248;8.252;2023-08-06T09:04:10;17.20;99.90
37408;DHT22;24866;50.248;8.252;2023-08-06T09:06:42;17.00;99.90
37408;DHT22;24866;50.248;8.252;2023-08-06T09:09:16;16.90;99.90
37408;DHT22;24866;50.248;8.252;2023-08-06T09:11:49;17.10;99.90
37408;DHT22;24866;50.248;8.252;2023-08-06T09:14:19;17.10;99.90
37408;DHT22;24866;50.248;8.252;2023-08-06T09:16:49;16.80;99.90
37408;DHT22;24866;50.248;8.252;2023-08-06T09:19:19;16.90;99.90
37408;DHT22;24866;50.248;8.252;2023-08-06T09:21:51;16.90;99.90
37408;DHT22;24866;50.248;8.252;2023-08-06T09:24:22;17.10;99.90
37408;DHT22;24866;50.248;8.252;2023-08-06T09:26:52;16.90;99.90
37408;DHT22;24866;50.248;8.252;2023-08-06T09:29:22;17.10;99.90
37408;DHT22;24866;50.248;8.252;2023-08-06T09:31:53;16.70;99.90
37408;DHT22;24866;50.248;8.252;2023-08-06T09:34:23;17.20;99.90
37408;DHT22;24866;50.248;8.252;2023-08-06T09:36:54;17.30;99.90
37408;DHT22;24866;50.248;8.252;2023-08-06T09:39:27;17.20;99.90
37408;DHT22;24866;50.248;8.252;2023-08-06T09:41:58;17.00;99.90
37408;DHT22;24866;50.248;8.252;2023-08-06T09:44:30;17.30;99.90
37408;DHT22;24866;50.248;8.252;2023-08-06T09:47:03;17.50;99.90
37408;DHT22;24866;50.248;8.252;2023-08-06T09:49:43;17.40;99.90
37408;DHT22;24866;50.248;8.252;2023-08-06T09:52:14;17.20;99.90
37408;DHT22;24866;50.248;8.252;2023-08-06T09:54:47;17.10;99.90
37408;DHT22;24866;50.248;8.252;2023-08-06T09:57:18;16.60;99.90
37408;DHT22;24866;50.248;8.252;2023-08-06T09:59:48;16.10;99.90
37408;DHT22;24866;50.248;8.252;2023-08-06T10:02:19;15.80;99.90
37408;DHT22;24866;50.248;8.252;2023-08-06T10:04:53;15.50;99.90
37408;DHT22;24866;50.248;8.252;2023-08-06T10:07:24;15.70;99.90
37408;DHT22;24866;50.248;8.252;2023-08-06T10:09:56;15.90;99.90
37408;DHT22;24866;50.248;8.252;2023-08-06T10:12:29;15.90;99.90
37408;DHT22;24866;50.248;8.252;2023-08-06T10:15:04;16.40;99.90
37408;DHT22;24866;50.248;8.252;2023-08-06T10:17:36;16.80;99.90
37408;DHT22;24866;50.248;8.252;2023-08-06T10:20:09;17.00;99.90
37408;DHT22;24866;50.248;8.252;2023-08-06T10:22:43;17.40;99.90
37408;DHT22;24866;50.248;8.252;2023-08-06T10:25:17;17.60;99.90
37408;DHT22;24866;50.248;8.252;2023-08-06T10:27:54;17.60;99.90
37408;DHT22;24866;50.248;8.252;2023-08-06T10:30:25;17.50;99.90
37408;DHT22;24866;50.248;8.252;2023-08-06T10:32:56;17.90;99.90
37408;DHT22;24866;50.248;8.252;2023-08-06T10:35:30;17.80;99.90
37408;DHT22;24866;50.248;8.252;2023-08-06T10:38:03;17.90;99.90
37408;DHT22;24866;50.248;8.252;2023-08-06T10:40:35;17.90;99.90
37408;DHT22;24866;50.248;8.252;2023-08-06T10:43:06;17.90;99.90
37408;DHT22;24866;50.248;8.252;2023-08-06T10:45:49;18.00;99.90
37408;DHT22;24866;50.248;8.252;2023-08-06T10:48:29;18.10;99.90
37408;DHT22;24866;50.248;8.252;2023-08-06T10:51:00;18.30;99.90
37408;DHT22;24866;50.248;8.252;2023-08-06T10:53:31;18.00;99.90
37408;DHT22;24866;50.248;8.252;2023-08-06T10:56:03;17.90;99.90
37408;DHT22;24866;50.248;8.252;2023-08-06T10:58:41;17.60;99.90
37408;DHT22;24866;50.248;8.252;2023-08-06T11:01:12;17.10;99.90
37408;DHT22;24866;50.248;8.252;2023-08-06T11:03:43;16.90;99.90
37408;DHT22;24866;50.248;8.252;2023-08-06T11:06:17;16.50;99.90
37408;DHT22;24866;50.248;8.252;2023-08-06T11:08:49;15.70;99.90
37408;DHT22;24866;50.248;8.252;2023-08-06T11:11:22;15.30;99.90
37408;DHT22;24866;50.248;8.252;2023-08-06T11:13:52;15.00;99.90
37408;DHT22;24866;50.248;8.252;2023-08-06T11:16:23;14.90;99.90
37408;DHT22;24866;50.248;8.252;2023-08-06T11:18:54;14.90;99.90
37408;DHT22;24866;50.248;8.252;2023-08-06T11:21:25;14.90;99.90
37408;DHT22;24866;50.248;8.252;2023-08-06T11:23:55;15.00;99.90
37408;DHT22;24866;50.248;8.252;2023-08-06T11:26:27;15.00;99.90
37408;DHT22;24866;50.248;8.252;2023-08-06T11:28:57;14.90;99.90
37408;DHT22;24866;50.248;8.252;2023-08-06T11:31:27;14.90;99.90
37408;DHT22;24866;50.248;8.252;2023-08-06T11:33:57;14.70;99.90
37408;DHT22;24866;50.248;8.252;2023-08-06T11:36:30;14.70;99.90
37408;DHT22;24866;50.248;8.252;2023-08-06T11:39:00;14.60;99.90
37408;DHT22;24866;50.248;8.252;2023-08-06T11:41:32;14.70;99.90
37408;DHT22;24866;50.248;8.252;2023-08-06T11:44:03;14.60;99.90
37408;DHT22;24866;50.248;8.252;2023-08-06T11:46:51;14.60;99.90
37408;DHT22;24866;50.248;8.252;2023-08-06T11:49:37;14.50;99.90
37408;DHT22;24866;50.248;8.252;2023-08-06T11:52:10;14.40;99.90
37408;DHT22;24866;50.248;8.252;2023-08-06T11:54:40;14.30;99.90
37408;DHT22;24866;50.248;8.252;2023-08-06T11:57:12;14.40;99.90
37408;DHT22;24866;50.248;8.252;2023-08-06T11:59:42;14.30;99.90
37408;DHT22;24866;50.248;8.252;2023-08-06T12:02:12;14.30;99.90
37408;DHT22;24866;50.248;8.252;2023-08-06T12:04:58;14.30;99.90
37408;DHT22;24866;50.248;8.252;2023-08-06T12:07:32;14.30;99.90
37408;DHT22;24866;50.248;8.252;2023-08-06T12:10:03;14.30;99.90
37408;DHT22;24866;50.248;8.252;2023-08-06T12:12:34;14.20;99.90
37408;DHT22;24866;50.248;8.252;2023-08-06T12:15:07;14.40;99.90
37408;DHT22;24866;50.248;8.252;2023-08-06T12:17:37;14.20;99.90
37408;DHT22;24866;50.248;8.252;2023-08-06T12:20:08;14.20;99.90
37408;DHT22;24866;50.248;8.252;2023-08-06T12:22:38;14.20;99.90
37408;DHT22;24866;50.248;8.252;2023-08-06T12:25:10;14.20;99.90
37408;DHT22;24866;50.248;8.252;2023-08-06T12:27:43;14.10;99.90
37408;DHT22;24866;50.248;8.252;2023-08-06T12:30:14;14.20;99.90
37408;DHT22;24866;50.248;8.252;2023-08-06T12:32:44;14.20;99.90
37408;DHT22;24866;50.248;8.252;2023-08-06T12:35:14;14.20;99.90
37408;DHT22;24866;50.248;8.252;2023-08-06T12:37:43;14.10;99.90
37408;DHT22;24866;50.248;8.252;2023-08-06T12:40:14;14.10;99.90
37408;DHT22;24866;50.248;8.252;2023-08-06T12:42:45;14.30;99.90
37408;DHT22;24866;50.248;8.252;2023-08-06T12:45:15;14.20;99.90
37408;DHT22;24866;50.248;8.252;2023-08-06T12:47:45;14.10;99.90
37408;DHT22;24866;50.248;8.252;2023-08-06T12:50:16;14.10;99.90
37408;DHT22;24866;50.248;8.252;2023-08-06T12:52:46;14.30;99.90
37408;DHT22;24866;50.248;8.252;2023-08-06T12:55:16;14.30;99.90
37408;DHT22;24866;50.248;8.252;2023-08-06T12:57:47;14.30;99.90
37408;DHT22;24866;50.248;8.252;2023-08-06T13:00:18;14.20;99.90
37408;DHT22;24866;50.248;8.252;2023-08-06T13:02:48;14.40;99.90
37408;DHT22;24866;50.248;8.252;2023-08-06T13:05:18;14.50;99.90
37408;DHT22;24866;50.248;8.252;2023-08-06T13:07:48;14.50;99.90
37408;DHT22;24866;50.248;8.252;2023-08-06T13:10:18;14.50;99.90
37408;DHT22;24866;50.248;8.252;2023-08-06T13:12:50;14.40;99.90
37408;DHT22;24866;50.248;8.252;2023-08-06T13:15:21;14.50;99.90
37408;DHT22;24866;50.248;8.252;2023-08-06T13:17:50;14.50;99.90
37408;DHT22;24866;50.248;8.252;2023-08-06T13:20:21;14.50;99.90
37408;DHT22;24866;50.248;8.252;2023-08-06T13:22:51;14.60;99.90
37408;DHT22;24866;50.248;8.252;2023-08-06T13:25:22;14.60;99.90
37408;DHT22;24866;50.248;8.252;2023-08-06T13:27:53;14.40;99.90
37408;DHT22;24866;50.248;8.252;2023-08-06T13:30:24;14.50;99.90
37408;DHT22;24866;50.248;8.252;2023-08-06T13:32:54;14.50;99.90
37408;DHT22;24866;50.248;8.252;2023-08-06T13:35:25;14.30;99.90
37408;DHT22;24866;50.248;8.252;2023-08-06T13:37:55;14.50;99.90
37408;DHT22;24866;50.248;8.252;2023-08-06T13:40:24;14.60;99.90
37408;DHT22;24866;50.248;8.252;2023-08-06T13:42:56;14.80;99.90
37408;DHT22;24866;50.248;8.252;2023-08-06T13:45:26;14.70;99.90
37408;DHT22;24866;50.248;8.252;2023-08-06T13:47:56;14.80;99.90
37408;DHT22;24866;50.248;8.252;2023-08-06T13:50:26;14.90;99.90
37408;DHT22;24866;50.248;8.252;2023-08-06T13:52:56;15.00;99.90
37408;DHT22;24866;50.248;8.252;2023-08-06T13:55:26;14.90;99.90
37408;DHT22;24866;50.248;8.252;2023-08-06T13:57:57;14.90;99.90
37408;DHT22;24866;50.248;8.252;2023-08-06T14:00:27;15.10;99.90
37408;DHT22;24866;50.248;8.252;2023-08-06T14:02:57;15.40;99.90
37408;DHT22;24866;50.248;8.252;2023-08-06T14:05:27;15.70;99.90
37408;DHT22;24866;50.248;8.252;2023-08-06T14:07:57;15.70;99.90
37408;DHT22;24866;50.248;8.252;2023-08-06T14:10:27;15.70;99.90
37408;DHT22;24866;50.248;8.252;2023-08-06T14:12:58;15.60;99.90
37408;DHT22;24866;50.248;8.252;2023-08-06T14:15:28;15.50;99.90
37408;DHT22;24866;50.248;8.252;2023-08-06T14:17:57;15.40;99.90
37408;DHT22;24866;50.248;8.252;2023-08-06T14:20:27;15.30;99.90
37408;DHT22;24866;50.248;8.252;2023-08-06T14:22:57;15.20;99.90
37408;DHT22;24866;50.248;8.252;2023-08-06T14:25:27;15.30;99.90
37408;DHT22;24866;50.248;8.252;2023-08-06T14:27:58;15.30;99.90
37408;DHT22;24866;50.248;8.252;2023-08-06T14:30:28;15.30;99.90
37408;DHT22;24866;50.248;8.252;2023-08-06T14:32:58;15.30;99.90
37408;DHT22;24866;50.248;8.252;2023-08-06T14:35:29;15.40;99.90
37408;DHT22;24866;50.248;8.252;2023-08-06T14:37:59;15.40;99.90
37408;DHT22;24866;50.248;8.252;2023-08-06T14:40:28;15.20;99.90
37408;DHT22;24866;50.248;8.252;2023-08-06T14:43:04;15.10;99.90
37408;DHT22;24866;50.248;8.252;2023-08-06T14:45:37;15.00;99.90
37408;DHT22;24866;50.248;8.252;2023-08-06T14:48:07;15.10;99.90
37408;DHT22;24866;50.248;8.252;2023-08-06T14:50:37;14.90;99.90
37408;DHT22;24866;50.248;8.252;2023-08-06T14:53:08;14.80;99.90
37408;DHT22;24866;50.248;8.252;2023-08-06T14:55:40;14.90;99.90
37408;DHT22;24866;50.248;8.252;2023-08-06T14:58:11;15.00;99.90
37408;DHT22;24866;50.248;8.252;2023-08-06T15:00:41;15.00;99.90
37408;DHT22;24866;50.248;8.252;2023-08-06T15:03:11;14.80;99.90
37408;DHT22;24866;50.248;8.252;2023-08-06T15:05:43;14.80;99.90
37408;DHT22;24866;50.248;8.252;2023-08-06T15:08:13;14.60;99.90
37408;DHT22;24866;50.248;8.252;2023-08-06T15:10:43;14.50;99.90
37408;DHT22;24866;50.248;8.252;2023-08-06T15:13:20;14.40;99.90
37408;DHT22;24866;50.248;8.252;2023-08-06T15:15:50;14.40;99.90
37408;DHT22;24866;50.248;8.252;2023-08-06T15:18:20;14.40;99.90
37408;DHT22;24866;50.248;8.252;2023-08-06T15:20:50;14.10;99.90
37408;DHT22;24866;50.248;8.252;2023-08-06T15:23:20;14.10;99.90
37408;DHT22;24866;50.248;8.252;2023-08-06T15:25:51;14.00;99.90
37408;DHT22;24866;50.248;8.252;2023-08-06T15:28:22;13.90;99.90
37408;DHT22;24866;50.248;8.252;2023-08-06T15:30:54;13.90;99.90
37408;DHT22;24866;50.248;8.252;2023-08-06T15:33:24;14.00;99.90
37408;DHT22;24866;50.248;8.252;2023-08-06T15:35:54;13.90;99.90
37408;DHT22;24866;50.248;8.252;2023-08-06T15:38:24;13.90;99.90
37408;DHT22;24866;50.248;8.252;2023-08-06T15:40:54;14.00;99.90
37408;DHT22;24866;50.248;8.252;2023-08-06T15:43:25;14.00;99.90
37408;DHT22;24866;50.248;8.252;2023-08-06T15:45:55;13.90;99.90
37408;DHT22;24866;50.248;8.252;2023-08-06T15:48:25;14.10;99.90
37408;DHT22;24866;50.248;8.252;2023-08-06T15:50:56;14.20;99.90
37408;DHT22;24866;50.248;8.252;2023-08-06T15:53:26;14.00;99.90